Latest Weather Observations for Badgerys Creek

IDN60901

Issued at 3:55 pm EST Friday 1 August 2014 (issued every 10 minutes, with the page automatically refreshed every 10 minutes)

About weather observations | Map of Sydney area stations | Latest observations for Sydney area | Other Formats
Station Details ID: 067108 Name: BADGERYS CREEK AWS Lat: -33.90 Lon: 150.73 Height: 81.2 m
Data from the previous 72 hours. | See also: Recent months at Badgerys Creek
Date/Time
EST
Tmp

°C
App
Tmp
°C
Dew
Point
°C
Rel
Hum
%
Delta-T

°C
Wind Press
QNH
hPa
Press
MSL
hPa
Rain
since
9 am
mm
Dir
 
Spd
km/h
Gust
km/h
Spd
kts
Gust
kts
01/03:30pm 14.8 6.6 -4.0 27 7.3 W 30 57 16 31 1009.2 - 0.0
01/03:11pm 15.1 6.9 -3.7 27 7.4 W 30 48 16 26 1009.0 - 0.0
01/03:00pm 15.5 7.4 -2.9 28 7.4 W 30 41 16 22 1008.9 1008.9 0.0
01/02:30pm 15.2 6.4 -4.2 26 7.5 WNW 33 56 18 30 1008.7 - 0.0
01/02:19pm 15.4 5.9 -4.0 26 7.6 W 37 57 20 31 1008.6 - 0.0
01/02:00pm 15.4 7.2 -4.0 26 7.6 W 30 44 16 24 1008.5 1008.5 0.0
01/01:30pm 15.5 8.7 -2.0 30 7.1 WNW 24 37 13 20 1008.4 - 0.0
01/01:00pm 15.4 7.1 -1.6 31 7.0 W 32 48 17 26 1008.3 1008.3 0.0
01/12:30pm 16.4 8.5 -1.7 29 7.5 WNW 30 46 16 25 1008.2 - 0.0
01/12:29pm 16.5 8.2 -1.6 29 7.5 WNW 32 50 17 27 1008.3 - 0.0
01/12:17pm 15.8 5.2 -3.6 26 7.7 WNW 43 52 23 28 1008.2 - 0.0
01/12:11pm 16.0 8.2 -1.1 31 7.1 W 30 48 16 26 1008.3 - 0.0
01/12:00pm 14.3 6.4 -1.3 34 6.4 WSW 30 43 16 23 1008.3 1008.3 0.0
01/11:30am 16.0 10.0 1.3 37 6.5 WSW 22 33 12 18 1008.5 - 0.0
01/11:00am 16.3 8.1 0.4 34 6.9 W 33 43 18 23 1008.0 1008.0 0.0
01/10:30am 17.1 11.6 1.9 36 6.8 W 20 32 11 17 1007.7 - 0.0
01/10:00am 16.8 10.8 3.1 40 6.3 WNW 24 35 13 19 1007.6 1007.6 0.0
01/09:30am 16.6 11.5 4.3 44 5.8 WNW 20 26 11 14 1007.5 - 0.0
01/09:00am 16.2 11.4 4.6 46 5.5 NW 19 26 10 14 1007.5 1007.5 0.0
01/08:30am 15.4 11.0 4.5 48 5.1 NW 17 24 9 13 1007.2 - 0.0
01/08:00am 15.0 10.5 4.1 48 5.1 NNW 17 20 9 11 1007.0 1007.0 0.0
01/07:30am 13.5 10.8 2.4 47 4.9 W 6 9 3 5 1006.8 - 0.0
01/07:00am 14.4 8.9 1.7 42 5.6 WNW 20 26 11 14 1006.4 1006.4 0.0
01/06:30am 15.6 9.4 -0.6 33 6.8 WNW 22 30 12 16 1005.7 - 0.0
01/06:00am 16.7 10.4 -0.9 30 7.5 W 22 30 12 16 1005.0 1005.0 0.0
01/05:30am 16.7 11.4 -0.9 30 7.4 WNW 17 26 9 14 1004.4 - 0.0
01/05:00am 17.6 11.6 -1.6 27 8.1 WNW 20 28 11 15 1004.2 1004.3 0.0
01/04:30am 18.4 12.0 -2.0 25 8.6 NW 22 33 12 18 1003.8 - 0.0
01/04:00am 18.3 12.4 -2.0 25 8.6 NNW 19 28 10 15 1003.2 1003.3 0.0
01/03:30am 18.2 12.3 -2.1 25 8.5 NW 19 26 10 14 1003.6 - 0.0
01/03:00am 17.4 12.7 -1.8 27 8.1 NW 13 20 7 11 1003.8 1003.9 0.0
01/02:30am 15.1 10.9 -1.0 33 6.7 N 11 13 6 7 1004.3 - 0.0
01/02:00am 15.6 11.0 -1.4 31 7.1 NNW 13 15 7 8 1004.6 1004.7 0.0
01/01:30am 15.4 10.8 -0.8 33 6.8 NNW 13 19 7 10 1004.8 - 0.0
01/01:00am 13.9 9.8 -0.2 38 5.9 N 11 19 6 10 1005.1 1005.1 0.0
01/12:30am 14.5 10.5 0.7 39 5.9 N 11 19 6 10 1005.3 - 0.0
01/12:00am 11.9 7.9 0.7 46 4.7 NNE 11 13 6 7 1005.5 1005.5 0.0
 
Date/Time
EST
Tmp

°C
App
Tmp
°C
Dew
Point
°C
Rel
Hum
%
Delta-T

°C
Wind Press
QNH
hPa
Press
MSL
hPa
Rain
since
9 am
mm
Dir
 
Spd
km/h
Gust
km/h
Spd
kts
Gust
kts
31/11:30pm 13.4 8.7 0.8 42 5.4 NNE 15 19 8 10 1005.7 - 0.0
31/11:00pm 14.0 9.3 1.0 41 5.6 NNE 15 19 8 10 1006.0 1006.0 0.0
31/10:30pm 15.2 10.8 0.6 37 6.3 N 13 15 7 8 1006.2 - 0.0
31/10:00pm 16.1 11.4 0.7 35 6.7 N 15 19 8 10 1006.1 1006.1 0.0
31/09:30pm 15.6 10.9 0.6 36 6.5 N 15 20 8 11 1006.2 - 0.0
31/09:00pm 16.9 11.8 0.5 33 7.2 N 17 22 9 12 1006.4 1006.4 0.0
31/08:30pm 17.3 11.2 0.5 32 7.4 N 22 28 12 15 1006.6 - 0.0
31/08:00pm 16.4 10.9 0.5 34 6.9 N 19 22 10 12 1006.7 1006.7 0.0
31/07:30pm 15.7 11.2 -0.1 34 6.7 N 13 15 7 8 1006.9 - 0.0
31/07:00pm 17.8 13.3 0.0 30 7.8 NNW 13 20 7 11 1006.9 1006.9 0.0
31/06:30pm 19.3 13.7 -0.1 27 8.5 NNW 19 24 10 13 1006.6 - 0.0
31/06:00pm 19.3 14.5 -0.1 27 8.6 NNW 15 22 8 12 1006.4 1006.4 0.0
31/05:30pm 20.7 14.9 0.0 25 9.2 NW 20 32 11 17 1006.4 - 0.0
31/05:00pm 21.6 15.9 -0.4 23 9.8 NNW 19 26 10 14 1006.8 1006.8 0.0
31/04:30pm 22.6 16.8 -0.2 22 10.3 NNW 20 30 11 16 1006.7 - 0.0
31/04:00pm 23.3 16.7 -0.2 21 10.7 NW 24 33 13 18 1006.8 1006.8 0.0
31/03:30pm 23.6 15.9 0.0 21 10.8 NW 30 43 16 23 1007.1 - 0.0
31/03:00pm 23.8 18.2 1.4 23 10.5 WNW 20 26 11 14 1007.5 1007.5 0.0
31/02:30pm 23.8 14.1 0.2 21 10.8 NW 41 59 22 32 1007.7 - 0.0
31/02:05pm 24.0 15.9 1.0 22 10.7 NW 33 54 18 29 1008.1 - 0.0
31/02:00pm 23.9 15.4 0.9 22 10.7 NW 35 54 19 29 1008.2 1008.2 0.0
31/01:30pm 24.0 14.7 0.4 21 10.9 NW 39 59 21 32 1008.7 - 0.0
31/01:04pm 24.5 16.9 0.8 21 11.1 NW 30 52 16 28 1009.0 - 0.0
31/01:00pm 24.0 16.8 1.0 22 10.8 NW 28 41 15 22 1009.1 1009.2 0.0
31/12:30pm 24.0 15.9 1.0 22 10.7 NW 33 50 18 27 1009.7 - 0.0
31/12:26pm 24.0 16.8 1.0 22 10.7 NW 28 48 15 26 1009.7 - 0.0
31/12:00pm 23.5 15.8 2.4 25 10.1 WNW 32 43 17 23 1010.3 1010.4 0.0
31/11:33am 23.3 15.4 2.2 25 10.0 WNW 33 52 18 28 1011.2 - 0.0
31/11:30am 23.3 15.1 2.7 26 9.9 WNW 35 52 19 28 1011.3 - 0.0
31/11:26am 23.0 15.0 1.9 25 9.9 WNW 33 52 18 28 1011.3 - 0.0
31/11:00am 22.5 14.9 2.6 27 9.5 WNW 32 43 17 23 1011.8 1011.9 0.0
31/10:30am 21.8 14.8 3.9 31 8.7 NW 30 52 16 28 1012.6 - 0.0
31/10:28am 21.6 14.5 3.8 31 8.6 NW 30 52 16 28 1012.5 - 0.0
31/10:00am 18.5 15.6 6.7 46 5.9 N 11 17 6 9 1013.3 1013.4 0.0
31/09:30am 17.1 13.8 6.6 50 5.2 N 13 19 7 10 1013.6 - 0.0
31/09:00am 14.3 12.3 6.9 61 3.6 N 7 9 4 5 1014.0 1014.1 0.0
31/08:30am 13.1 9.9 6.7 65 3.1 N 13 17 7 9 1014.1 - 0.0
31/08:00am 12.2 7.8 6.5 68 2.7 N 19 24 10 13 1014.2 1014.3 0.0
31/07:30am 10.1 6.8 6.3 77 1.8 N 13 19 7 10 1014.4 - 0.0
31/07:00am 8.4 4.9 5.5 82 1.3 N 13 19 7 10 1014.4 1014.5 0.0
31/06:30am 8.5 4.7 5.8 83 1.2 N 15 17 8 9 1014.3 - 0.0
31/06:00am 9.3 6.3 6.2 81 1.4 NNE 11 15 6 8 1014.1 1014.2 0.0
31/05:30am 9.7 6.3 6.1 78 1.7 N 13 19 7 10 1014.1 - 0.0
31/05:00am 10.8 7.9 6.4 74 2.1 NNW 11 13 6 7 1014.3 1014.4 0.0
31/04:30am 10.9 7.7 6.8 76 1.9 N 13 17 7 9 1014.3 - 0.0
31/04:00am 10.9 6.9 6.5 74 2.1 N 17 20 9 11 1014.5 1014.6 0.0
31/03:30am 11.8 7.9 7.3 74 2.2 N 17 20 9 11 1014.6 - 0.0
31/03:00am 10.8 6.9 7.1 78 1.8 N 17 20 9 11 1014.7 1014.8 0.0
31/02:30am 10.8 7.4 7.5 80 1.6 N 15 19 8 10 1014.9 - 0.0
31/02:00am 12.1 8.7 7.8 75 2.1 N 15 19 8 10 1015.1 1015.2 0.0
31/01:30am 11.3 7.8 7.2 76 2.0 N 15 17 8 9 1015.4 - 0.0
31/01:00am 11.3 8.1 6.8 74 2.1 N 13 15 7 8 1015.7 1015.8 0.0
31/12:30am 11.6 8.4 6.7 72 2.3 N 13 17 7 9 1015.8 - 0.0
31/12:00am 12.5 8.7 7.4 71 2.5 N 17 19 9 10 1016.3 1016.4 0.0
 
Date/Time
EST
Tmp

°C
App
Tmp
°C
Dew
Point
°C
Rel
Hum
%
Delta-T

°C
Wind Press
QNH
hPa
Press
MSL
hPa
Rain
since
9 am
mm
Dir
 
Spd
km/h
Gust
km/h
Spd
kts
Gust
kts
30/11:30pm 12.5 9.4 7.4 71 2.5 N 13 19 7 10 1016.5 - 0.0
30/11:00pm 12.5 9.8 7.4 71 2.5 N 11 13 6 7 1016.8 1016.9 0.0
30/10:30pm 12.4 9.6 6.9 69 2.6 N 11 13 6 7 1017.0 - 0.0
30/10:00pm 13.7 10.2 7.0 64 3.3 NNW 15 19 8 10 1017.1 1017.2 0.0
30/09:30pm 13.5 10.3 6.8 64 3.2 N 13 17 7 9 1017.2 - 0.0
30/09:00pm 13.2 10.3 6.5 64 3.2 N 11 13 6 7 1017.3 1017.4 0.0
30/08:30pm 13.9 10.5 6.0 59 3.8 NNW 13 17 7 9 1017.2 - 0.0
30/08:00pm 15.0 11.8 6.8 58 4.0 NNW 13 15 7 8 1017.3 1017.4 0.0
30/07:30pm 14.6 11.7 6.4 58 4.0 N 11 13 6 7 1017.5 - 0.0
30/07:00pm 16.0 14.0 6.4 53 4.7 N 6 9 3 5 1017.3 1017.4 0.0
30/06:30pm 16.3 13.8 6.4 52 4.9 NW 9 15 5 8 1016.9 - 0.0
30/06:00pm 16.8 14.3 6.6 51 5.0 WNW 9 17 5 9 1016.6 1016.7 0.0
30/05:30pm 17.7 13.3 6.6 48 5.5 WNW 19 26 10 14 1016.1 - 0.0
30/05:00pm 19.0 14.6 6.5 44 6.3 WNW 19 26 10 14 1015.6 1015.7 0.0
30/04:30pm 20.2 15.7 6.9 42 6.8 WNW 20 30 11 16 1015.3 - 0.0
30/04:00pm 20.9 15.1 6.4 39 7.3 WNW 26 37 14 20 1015.1 1015.2 0.0
30/03:30pm 21.6 17.0 6.7 38 7.6 NW 20 30 11 16 1014.8 - 0.0
30/03:00pm 22.1 17.5 6.3 36 8.0 WNW 20 30 11 16 1014.8 1014.9 0.0
30/02:30pm 22.3 17.9 6.5 36 8.1 NW 19 30 10 16 1014.8 - 0.0
30/02:00pm 22.2 17.8 6.4 36 8.1 W 19 24 10 13 1014.8 1014.9 0.0
30/01:30pm 22.2 16.4 6.4 36 8.1 NW 26 37 14 20 1015.0 - 0.0
30/01:00pm 22.3 16.9 6.5 36 8.1 NW 24 32 13 17 1015.1 1015.2 0.0
30/12:30pm 22.4 17.8 6.6 36 8.1 NW 20 26 11 14 1015.5 - 0.0
30/12:00pm 22.0 17.1 6.7 37 7.8 WNW 22 32 12 17 1015.9 1016.0 0.0
30/11:30am 21.8 17.3 6.9 38 7.7 NW 20 28 11 15 1016.3 - 0.0
30/11:00am 20.6 17.1 7.2 42 6.9 W 15 20 8 11 1016.9 1017.0 0.0
30/10:30am 20.0 17.3 7.4 44 6.5 NNW 11 15 6 8 1017.3 - 0.0
30/10:00am 19.0 16.7 7.4 47 5.9 NNE 9 15 5 8 1018.0 1018.0 0.0
30/09:30am 18.7 16.7 7.2 47 5.8 N 7 9 4 5 1018.2 - 0.0
30/09:00am 17.3 14.5 7.1 51 5.1 WNW 11 17 6 9 1018.1 1018.1 0.0
30/08:30am 14.8 11.1 6.4 57 4.1 NW 15 19 8 10 1018.1 - 0.0
30/08:00am 12.4 9.1 6.5 67 2.8 NW 13 17 7 9 1018.3 1018.3 0.0
30/07:30am 7.7 4.7 3.9 77 1.6 WNW 9 11 5 6 1018.5 - 0.0
30/07:00am 7.0 4.5 3.8 80 1.4 W 6 9 3 5 1018.5 1018.6 0.0
30/06:30am 7.0 4.6 4.3 83 1.2 WSW 6 11 3 6 1018.0 - 0.0
30/06:00am 6.8 5.0 3.4 79 1.4 WSW 2 6 1 3 1017.7 1017.7 0.0
30/05:30am 6.4 3.9 3.6 82 1.2 SW 6 9 3 5 1017.3 - 0.0
30/05:00am 9.3 8.3 5.7 78 1.6 CALM 0 4 0 2 1016.7 1016.8 0.0
30/04:30am 7.5 6.2 3.9 78 1.6 CALM 0 6 0 3 1016.4 - 0.0
30/04:00am 7.7 6.0 3.9 77 1.6 SSW 2 6 1 3 1016.3 1016.4 0.0
30/03:30am 7.6 5.8 3.5 75 1.8 SSW 2 6 1 3 1016.1 - 0.0
30/03:00am 8.7 6.6 3.7 71 2.2 WSW 4 7 2 4 1016.0 1016.1 0.0
30/02:30am 9.7 8.4 4.1 68 2.5 CALM 0 0 0 0 1015.7 - 0.0
30/02:00am 10.3 8.6 4.0 65 2.8 N 2 6 1 3 1015.6 1015.7 0.0
30/01:30am 11.6 9.2 4.3 61 3.3 N 6 9 3 5 1015.5 - 0.0
30/01:00am 11.7 7.6 4.2 60 3.4 N 15 19 8 10 1015.4 1015.5 0.0
30/12:30am 12.4 7.5 4.1 57 3.8 N 19 20 10 11 1015.3 - 0.0
30/12:00am 12.8 8.4 4.5 57 3.8 N 17 20 9 11 1015.4 1015.5 0.0
 
Date/Time
EST
Tmp

°C
App
Tmp
°C
Dew
Point
°C
Rel
Hum
%
Delta-T

°C
Wind Press
QNH
hPa
Press
MSL
hPa
Rain
since
9 am
mm
Dir
 
Spd
km/h
Gust
km/h
Spd
kts
Gust
kts
29/11:30pm 14.3 9.4 4.3 51 4.6 N 19 22 10 12 1015.3 - 0.0
29/11:00pm 13.7 8.6 4.3 53 4.3 N 20 26 11 14 1015.5 1015.6 0.0
29/10:30pm 14.4 9.6 4.4 51 4.6 N 19 24 10 13 1015.4 - 0.0
29/10:00pm 14.7 10.2 4.1 49 4.9 N 17 24 9 13 1015.4 1015.5 0.0
29/09:30pm 14.6 10.4 3.7 48 5.0 N 15 19 8 10 1015.5 - 0.0
29/09:00pm 15.6 10.6 3.4 44 5.6 N 19 26 10 14 1015.4 1015.5 0.0
29/08:30pm 15.5 10.5 3.6 45 5.5 N 19 24 10 13 1015.5 - 0.0
29/08:00pm 14.9 10.2 3.1 45 5.3 N 17 19 9 10 1015.6 1015.7 0.0
29/07:30pm 15.0 10.9 2.5 43 5.6 NNW 13 15 7 8 1015.8 - 0.0
29/07:00pm 15.0 10.6 2.5 43 5.6 N 15 17 8 9 1015.7 1015.8 0.0
29/06:30pm 16.1 11.6 2.2 39 6.2 NNW 15 17 8 9 1015.6 - 0.0
29/06:00pm 17.8 12.9 1.7 34 7.2 NW 17 22 9 12 1015.3 1015.4 0.0
29/05:30pm 17.8 12.9 1.7 34 7.3 NNW 17 20 9 11 1014.9 - 0.0
29/05:00pm 19.4 14.5 1.9 31 8.0 NW 17 22 9 12 1014.4 1014.5 0.0
29/04:30pm 20.6 15.1 2.0 29 8.6 NW 20 28 11 15 1014.0 - 0.0
29/04:00pm 21.5 16.0 1.7 27 9.2 W 20 26 11 14 1014.0 1014.1 0.0

Latest Capital City Observations: Canberra | Sydney | Melbourne | Brisbane | Adelaide | Perth | Hobart | Darwin

Other Formats:

Comma delimited format used in spreadsheet applications
http://www.bom.gov.au/fwo/IDN60901/IDN60901.94752.axf

JavaScript Object Notation format (JSON) in row-major order
http://www.bom.gov.au/fwo/IDN60901/IDN60901.94752.json